IN-0067 weather

Madhubani Airport
Bihar, India

Public forecast

Using degrees Celsius for public forecast. Weather courtesy of forecast.io.

METAR (pilot weather report)

Closest report is Lok Nayak Jayaprakash Airport, 68.7 nm (127.2 km) SW. Retrieved 2019/07/17 22:30 UTC (0 seconds ago):

VEPT 172230Z 00000KT 3000 BR FEW020 SCT100 29/26 Q1000 NOSIG

TAF (pilot weather forecast)

Closest forecast is Lok Nayak Jayaprakash Airport, 68.7 nm (127.2 km) SW. Retrieved 2019/07/17 18:06 UTC (4 hours ago):

TAF VEPT 171700Z 1718/1824 16005KT 4000 HZ SCT018 SCT100 BECMG 1723/1801 00000KT 2800 BR BECMG 1803/1805 03005KT 4000 HZ TEMPO 1806/1810 2000 -TSRA SCT015 FEW025CB OVC090